sensor_id;sensor_type;location;lat;lon;timestamp;temperature;humidity
24412;DHT22;12544;46.760;15.942;2023-06-14T00:01:55;14.90;99.90
24412;DHT22;12544;46.760;15.942;2023-06-14T00:04:21;14.90;99.90
24412;DHT22;12544;46.760;15.942;2023-06-14T00:06:47;14.90;99.90
24412;DHT22;12544;46.760;15.942;2023-06-14T00:09:14;14.90;99.90
24412;DHT22;12544;46.760;15.942;2023-06-14T00:11:40;14.90;99.90
24412;DHT22;12544;46.760;15.942;2023-06-14T00:14:07;14.90;99.90
24412;DHT22;12544;46.760;15.942;2023-06-14T00:16:32;14.80;99.90
24412;DHT22;12544;46.760;15.942;2023-06-14T00:19:05;14.80;99.90
24412;DHT22;12544;46.760;15.942;2023-06-14T00:21:31;14.80;99.90
24412;DHT22;12544;46.760;15.942;2023-06-14T00:24:01;14.80;99.90
24412;DHT22;12544;46.760;15.942;2023-06-14T00:26:26;14.70;99.90
24412;DHT22;12544;46.760;15.942;2023-06-14T00:28:53;14.70;99.90
24412;DHT22;12544;46.760;15.942;2023-06-14T00:31:18;14.70;99.90
24412;DHT22;12544;46.760;15.942;2023-06-14T00:33:44;14.70;99.90
24412;DHT22;12544;46.760;15.942;2023-06-14T00:36:10;14.60;99.90
24412;DHT22;12544;46.760;15.942;2023-06-14T00:38:36;14.70;99.90
24412;DHT22;12544;46.760;15.942;2023-06-14T00:41:01;14.70;99.90
24412;DHT22;12544;46.760;15.942;2023-06-14T00:43:27;14.70;99.90
24412;DHT22;12544;46.760;15.942;2023-06-14T00:45:52;14.80;99.90
24412;DHT22;12544;46.760;15.942;2023-06-14T00:48:18;14.80;99.90
24412;DHT22;12544;46.760;15.942;2023-06-14T00:50:45;14.80;99.90
24412;DHT22;12544;46.760;15.942;2023-06-14T00:53:12;14.90;99.90
24412;DHT22;12544;46.760;15.942;2023-06-14T00:55:38;14.90;99.90
24412;DHT22;12544;46.760;15.942;2023-06-14T00:58:03;14.90;99.90
24412;DHT22;12544;46.760;15.942;2023-06-14T01:00:29;14.80;99.90
24412;DHT22;12544;46.760;15.942;2023-06-14T01:02:55;14.80;99.90
24412;DHT22;12544;46.760;15.942;2023-06-14T01:05:22;14.70;99.90
24412;DHT22;12544;46.760;15.942;2023-06-14T01:10:51;14.70;99.90
24412;DHT22;12544;46.760;15.942;2023-06-14T01:13:20;14.80;99.90
24412;DHT22;12544;46.760;15.942;2023-06-14T01:15:47;14.90;99.90
24412;DHT22;12544;46.760;15.942;2023-06-14T01:18:13;14.90;99.90
24412;DHT22;12544;46.760;15.942;2023-06-14T01:20:46;15.00;99.90
24412;DHT22;12544;46.760;15.942;2023-06-14T01:23:16;14.90;99.90
24412;DHT22;12544;46.760;15.942;2023-06-14T01:25:42;14.80;99.90
24412;DHT22;12544;46.760;15.942;2023-06-14T01:28:10;14.80;99.90
24412;DHT22;12544;46.760;15.942;2023-06-14T01:30:41;14.80;99.90
24412;DHT22;12544;46.760;15.942;2023-06-14T01:33:18;14.90;99.90
24412;DHT22;12544;46.760;15.942;2023-06-14T01:35:49;14.90;99.90
24412;DHT22;12544;46.760;15.942;2023-06-14T01:38:15;14.90;99.90
24412;DHT22;12544;46.760;15.942;2023-06-14T01:40:46;14.90;99.90
24412;DHT22;12544;46.760;15.942;2023-06-14T01:43:14;14.80;99.90
24412;DHT22;12544;46.760;15.942;2023-06-14T01:45:41;14.80;99.90
24412;DHT22;12544;46.760;15.942;2023-06-14T01:48:08;14.80;99.90
24412;DHT22;12544;46.760;15.942;2023-06-14T01:50:34;14.70;99.90
24412;DHT22;12544;46.760;15.942;2023-06-14T01:53:00;14.70;99.90
24412;DHT22;12544;46.760;15.942;2023-06-14T01:55:25;14.70;99.90
24412;DHT22;12544;46.760;15.942;2023-06-14T01:57:52;14.70;99.90
24412;DHT22;12544;46.760;15.942;2023-06-14T02:00:18;14.70;99.90
24412;DHT22;12544;46.760;15.942;2023-06-14T02:02:45;14.70;99.90
24412;DHT22;12544;46.760;15.942;2023-06-14T02:05:11;14.70;99.90
24412;DHT22;12544;46.760;15.942;2023-06-14T02:07:37;14.70;99.90
24412;DHT22;12544;46.760;15.942;2023-06-14T02:10:04;14.80;99.90
24412;DHT22;12544;46.760;15.942;2023-06-14T02:12:29;14.80;99.90
24412;DHT22;12544;46.760;15.942;2023-06-14T02:14:55;14.90;99.90
24412;DHT22;12544;46.760;15.942;2023-06-14T02:17:22;14.90;99.90
24412;DHT22;12544;46.760;15.942;2023-06-14T02:19:47;14.90;99.90
24412;DHT22;12544;46.760;15.942;2023-06-14T02:22:14;14.90;99.90
24412;DHT22;12544;46.760;15.942;2023-06-14T02:24:43;14.90;99.90
24412;DHT22;12544;46.760;15.942;2023-06-14T02:27:09;15.00;99.90
24412;DHT22;12544;46.760;15.942;2023-06-14T02:29:37;15.00;99.90
24412;DHT22;12544;46.760;15.942;2023-06-14T02:32:03;15.00;99.90
24412;DHT22;12544;46.760;15.942;2023-06-14T02:34:29;15.00;99.90
24412;DHT22;12544;46.760;15.942;2023-06-14T02:36:55;15.00;99.90
24412;DHT22;12544;46.760;15.942;2023-06-14T02:39:21;15.10;99.90
24412;DHT22;12544;46.760;15.942;2023-06-14T02:41:49;15.10;99.90
24412;DHT22;12544;46.760;15.942;2023-06-14T02:44:17;15.10;99.90
24412;DHT22;12544;46.760;15.942;2023-06-14T02:46:43;15.10;99.90
24412;DHT22;12544;46.760;15.942;2023-06-14T02:49:09;15.10;99.90
24412;DHT22;12544;46.760;15.942;2023-06-14T02:51:35;15.10;99.90
24412;DHT22;12544;46.760;15.942;2023-06-14T02:54:01;15.10;99.90
24412;DHT22;12544;46.760;15.942;2023-06-14T02:56:26;15.10;99.90
24412;DHT22;12544;46.760;15.942;2023-06-14T02:58:53;15.10;99.90
24412;DHT22;12544;46.760;15.942;2023-06-14T03:01:19;15.00;99.90
24412;DHT22;12544;46.760;15.942;2023-06-14T03:03:44;15.00;99.90
24412;DHT22;12544;46.760;15.942;2023-06-14T03:06:10;15.00;99.90
24412;DHT22;12544;46.760;15.942;2023-06-14T03:08:38;15.00;99.90
24412;DHT22;12544;46.760;15.942;2023-06-14T03:11:04;14.90;99.90
24412;DHT22;12544;46.760;15.942;2023-06-14T03:13:36;14.90;99.90
24412;DHT22;12544;46.760;15.942;2023-06-14T03:16:02;14.90;99.90
24412;DHT22;12544;46.760;15.942;2023-06-14T03:18:31;14.90;99.90
24412;DHT22;12544;46.760;15.942;2023-06-14T03:21:01;14.80;99.90
24412;DHT22;12544;46.760;15.942;2023-06-14T03:23:27;14.80;99.90
24412;DHT22;12544;46.760;15.942;2023-06-14T03:25:53;14.70;99.90
24412;DHT22;12544;46.760;15.942;2023-06-14T03:28:18;14.70;99.90
24412;DHT22;12544;46.760;15.942;2023-06-14T03:30:44;14.70;99.90
24412;DHT22;12544;46.760;15.942;2023-06-14T03:33:09;14.70;99.90
24412;DHT22;12544;46.760;15.942;2023-06-14T03:35:36;14.70;99.90
24412;DHT22;12544;46.760;15.942;2023-06-14T03:38:01;14.70;99.90
24412;DHT22;12544;46.760;15.942;2023-06-14T03:40:28;14.80;99.90
24412;DHT22;12544;46.760;15.942;2023-06-14T03:42:54;14.80;99.90
24412;DHT22;12544;46.760;15.942;2023-06-14T03:45:20;14.70;99.90
24412;DHT22;12544;46.760;15.942;2023-06-14T03:47:46;14.60;99.90
24412;DHT22;12544;46.760;15.942;2023-06-14T03:50:12;14.60;99.90
24412;DHT22;12544;46.760;15.942;2023-06-14T03:52:38;14.60;99.90
24412;DHT22;12544;46.760;15.942;2023-06-14T03:55:04;14.60;99.90
24412;DHT22;12544;46.760;15.942;2023-06-14T03:57:30;14.60;99.90
24412;DHT22;12544;46.760;15.942;2023-06-14T03:59:56;14.70;99.90
24412;DHT22;12544;46.760;15.942;2023-06-14T04:02:21;14.70;99.90
24412;DHT22;12544;46.760;15.942;2023-06-14T04:04:48;14.70;99.90
24412;DHT22;12544;46.760;15.942;2023-06-14T04:07:14;14.70;99.90
24412;DHT22;12544;46.760;15.942;2023-06-14T04:09:41;14.70;99.90
24412;DHT22;12544;46.760;15.942;2023-06-14T04:12:07;14.70;99.90
24412;DHT22;12544;46.760;15.942;2023-06-14T04:14:37;14.70;99.90
24412;DHT22;12544;46.760;15.942;2023-06-14T04:17:02;14.70;99.90
24412;DHT22;12544;46.760;15.942;2023-06-14T04:19:28;14.80;99.90
24412;DHT22;12544;46.760;15.942;2023-06-14T04:21:54;14.90;99.90
24412;DHT22;12544;46.760;15.942;2023-06-14T04:24:20;14.90;99.90
24412;DHT22;12544;46.760;15.942;2023-06-14T04:26:45;15.00;99.90
24412;DHT22;12544;46.760;15.942;2023-06-14T04:29:14;15.00;99.90
24412;DHT22;12544;46.760;15.942;2023-06-14T04:31:42;15.00;99.90
24412;DHT22;12544;46.760;15.942;2023-06-14T04:34:08;15.10;99.90
24412;DHT22;12544;46.760;15.942;2023-06-14T04:36:34;15.20;99.90
24412;DHT22;12544;46.760;15.942;2023-06-14T04:39:02;15.20;99.90
24412;DHT22;12544;46.760;15.942;2023-06-14T04:41:30;15.30;99.90
24412;DHT22;12544;46.760;15.942;2023-06-14T04:44:01;15.30;99.90
24412;DHT22;12544;46.760;15.942;2023-06-14T04:46:30;15.40;99.90
24412;DHT22;12544;46.760;15.942;2023-06-14T04:48:57;15.40;99.90
24412;DHT22;12544;46.760;15.942;2023-06-14T04:51:23;15.50;99.90
24412;DHT22;12544;46.760;15.942;2023-06-14T04:53:56;15.50;99.90
24412;DHT22;12544;46.760;15.942;2023-06-14T04:56:24;15.60;99.90
24412;DHT22;12544;46.760;15.942;2023-06-14T04:58:50;15.60;99.90
24412;DHT22;12544;46.760;15.942;2023-06-14T05:01:16;15.70;99.90
24412;DHT22;12544;46.760;15.942;2023-06-14T05:03:42;15.70;99.90
24412;DHT22;12544;46.760;15.942;2023-06-14T05:06:10;15.70;99.90
24412;DHT22;12544;46.760;15.942;2023-06-14T05:08:37;15.70;99.90
24412;DHT22;12544;46.760;15.942;2023-06-14T05:11:03;15.70;99.90
24412;DHT22;12544;46.760;15.942;2023-06-14T05:13:28;15.70;99.90
24412;DHT22;12544;46.760;15.942;2023-06-14T05:15:54;15.80;99.90
24412;DHT22;12544;46.760;15.942;2023-06-14T05:18:20;15.80;99.90
24412;DHT22;12544;46.760;15.942;2023-06-14T05:20:45;15.80;99.90
24412;DHT22;12544;46.760;15.942;2023-06-14T05:23:11;15.90;99.90
24412;DHT22;12544;46.760;15.942;2023-06-14T05:25:42;15.90;99.90
24412;DHT22;12544;46.760;15.942;2023-06-14T05:28:08;15.90;99.90
24412;DHT22;12544;46.760;15.942;2023-06-14T05:30:34;16.00;99.90
24412;DHT22;12544;46.760;15.942;2023-06-14T05:33:00;16.00;99.90
24412;DHT22;12544;46.760;15.942;2023-06-14T05:35:25;16.00;99.90
24412;DHT22;12544;46.760;15.942;2023-06-14T05:37:52;16.10;99.90
24412;DHT22;12544;46.760;15.942;2023-06-14T05:40:19;16.10;99.90
24412;DHT22;12544;46.760;15.942;2023-06-14T05:42:45;16.20;99.90
24412;DHT22;12544;46.760;15.942;2023-06-14T05:45:11;16.20;99.90
24412;DHT22;12544;46.760;15.942;2023-06-14T05:47:36;16.20;99.90
24412;DHT22;12544;46.760;15.942;2023-06-14T05:50:02;16.30;99.90
24412;DHT22;12544;46.760;15.942;2023-06-14T05:52:28;16.30;99.90
24412;DHT22;12544;46.760;15.942;2023-06-14T05:54:55;16.30;99.90
24412;DHT22;12544;46.760;15.942;2023-06-14T05:57:20;16.30;99.90
24412;DHT22;12544;46.760;15.942;2023-06-14T05:59:46;16.40;99.90
24412;DHT22;12544;46.760;15.942;2023-06-14T06:02:12;16.40;99.90
24412;DHT22;12544;46.760;15.942;2023-06-14T06:04:37;16.50;99.90
24412;DHT22;12544;46.760;15.942;2023-06-14T06:07:03;16.60;99.90
24412;DHT22;12544;46.760;15.942;2023-06-14T06:09:29;16.80;99.90
24412;DHT22;12544;46.760;15.942;2023-06-14T06:11:55;16.90;99.90
24412;DHT22;12544;46.760;15.942;2023-06-14T06:14:20;17.10;99.90
24412;DHT22;12544;46.760;15.942;2023-06-14T06:16:46;17.20;99.90
24412;DHT22;12544;46.760;15.942;2023-06-14T06:19:12;17.30;99.90
24412;DHT22;12544;46.760;15.942;2023-06-14T06:21:37;17.40;99.90
24412;DHT22;12544;46.760;15.942;2023-06-14T06:24:04;17.50;99.90
24412;DHT22;12544;46.760;15.942;2023-06-14T06:26:31;17.60;99.90
24412;DHT22;12544;46.760;15.942;2023-06-14T06:29:00;17.70;99.90
24412;DHT22;12544;46.760;15.942;2023-06-14T06:31:25;17.60;99.90
24412;DHT22;12544;46.760;15.942;2023-06-14T06:33:55;17.60;99.90
24412;DHT22;12544;46.760;15.942;2023-06-14T06:36:21;17.70;99.90
24412;DHT22;12544;46.760;15.942;2023-06-14T06:38:47;17.60;99.90
24412;DHT22;12544;46.760;15.942;2023-06-14T06:41:13;17.60;99.90
24412;DHT22;12544;46.760;15.942;2023-06-14T06:43:39;17.50;99.90
24412;DHT22;12544;46.760;15.942;2023-06-14T06:46:05;17.50;99.90
24412;DHT22;12544;46.760;15.942;2023-06-14T06:48:30;17.70;99.90
24412;DHT22;12544;46.760;15.942;2023-06-14T06:50:56;17.70;99.90
24412;DHT22;12544;46.760;15.942;2023-06-14T06:53:22;17.90;99.90
24412;DHT22;12544;46.760;15.942;2023-06-14T06:55:48;18.00;99.90
24412;DHT22;12544;46.760;15.942;2023-06-14T06:58:14;18.00;99.90
24412;DHT22;12544;46.760;15.942;2023-06-14T07:00:39;18.10;99.90
24412;DHT22;12544;46.760;15.942;2023-06-14T07:03:05;18.20;99.90
24412;DHT22;12544;46.760;15.942;2023-06-14T07:05:31;18.30;99.90
24412;DHT22;12544;46.760;15.942;2023-06-14T07:07:57;18.40;99.90
24412;DHT22;12544;46.760;15.942;2023-06-14T07:10:23;18.30;99.90
24412;DHT22;12544;46.760;15.942;2023-06-14T07:12:52;18.10;99.90
24412;DHT22;12544;46.760;15.942;2023-06-14T07:15:18;17.90;99.90
24412;DHT22;12544;46.760;15.942;2023-06-14T07:17:43;17.50;99.90
24412;DHT22;12544;46.760;15.942;2023-06-14T07:20:09;17.30;99.90
24412;DHT22;12544;46.760;15.942;2023-06-14T07:22:42;17.20;99.90
24412;DHT22;12544;46.760;15.942;2023-06-14T07:25:10;17.10;99.90
24412;DHT22;12544;46.760;15.942;2023-06-14T07:27:37;17.10;99.90
24412;DHT22;12544;46.760;15.942;2023-06-14T07:30:03;17.20;99.90
24412;DHT22;12544;46.760;15.942;2023-06-14T07:32:29;17.30;99.90
24412;DHT22;12544;46.760;15.942;2023-06-14T07:34:55;17.30;99.90
24412;DHT22;12544;46.760;15.942;2023-06-14T07:37:20;17.40;99.90
24412;DHT22;12544;46.760;15.942;2023-06-14T07:39:46;17.40;99.90
24412;DHT22;12544;46.760;15.942;2023-06-14T07:42:11;17.30;99.90
24412;DHT22;12544;46.760;15.942;2023-06-14T07:44:37;17.30;99.90
24412;DHT22;12544;46.760;15.942;2023-06-14T07:47:03;17.30;99.90
24412;DHT22;12544;46.760;15.942;2023-06-14T07:49:28;17.20;99.90
24412;DHT22;12544;46.760;15.942;2023-06-14T07:51:54;17.00;99.90
24412;DHT22;12544;46.760;15.942;2023-06-14T07:54:20;16.90;99.90
24412;DHT22;12544;46.760;15.942;2023-06-14T07:56:50;16.80;99.90
24412;DHT22;12544;46.760;15.942;2023-06-14T07:59:16;16.70;99.90
24412;DHT22;12544;46.760;15.942;2023-06-14T08:01:41;16.70;99.90
24412;DHT22;12544;46.760;15.942;2023-06-14T08:04:12;16.70;99.90
24412;DHT22;12544;46.760;15.942;2023-06-14T08:06:38;16.60;99.90
24412;DHT22;12544;46.760;15.942;2023-06-14T08:09:04;16.50;99.90
24412;DHT22;12544;46.760;15.942;2023-06-14T08:11:30;16.20;99.90
24412;DHT22;12544;46.760;15.942;2023-06-14T08:13:56;16.10;99.90
24412;DHT22;12544;46.760;15.942;2023-06-14T08:16:22;15.90;99.90
24412;DHT22;12544;46.760;15.942;2023-06-14T08:18:48;15.90;99.90
24412;DHT22;12544;46.760;15.942;2023-06-14T08:21:13;15.80;99.90
24412;DHT22;12544;46.760;15.942;2023-06-14T08:23:40;15.80;99.90
24412;DHT22;12544;46.760;15.942;2023-06-14T08:26:08;15.80;99.90
24412;DHT22;12544;46.760;15.942;2023-06-14T08:28:34;15.80;99.90
24412;DHT22;12544;46.760;15.942;2023-06-14T08:30:59;15.90;99.90
24412;DHT22;12544;46.760;15.942;2023-06-14T08:33:25;15.90;99.90
24412;DHT22;12544;46.760;15.942;2023-06-14T08:35:51;16.00;99.90
24412;DHT22;12544;46.760;15.942;2023-06-14T08:38:16;16.00;99.90
24412;DHT22;12544;46.760;15.942;2023-06-14T08:40:42;16.00;99.90
24412;DHT22;12544;46.760;15.942;2023-06-14T08:43:08;15.90;99.90
24412;DHT22;12544;46.760;15.942;2023-06-14T08:45:34;15.90;99.90
24412;DHT22;12544;46.760;15.942;2023-06-14T08:48:00;15.90;99.90
24412;DHT22;12544;46.760;15.942;2023-06-14T08:50:27;16.00;99.90
24412;DHT22;12544;46.760;15.942;2023-06-14T08:52:57;16.00;99.90
24412;DHT22;12544;46.760;15.942;2023-06-14T08:55:28;16.10;99.90
24412;DHT22;12544;46.760;15.942;2023-06-14T08:57:55;16.20;99.90
24412;DHT22;12544;46.760;15.942;2023-06-14T09:00:23;16.20;99.90
24412;DHT22;12544;46.760;15.942;2023-06-14T09:02:50;16.30;99.90
24412;DHT22;12544;46.760;15.942;2023-06-14T09:05:22;16.30;99.90
24412;DHT22;12544;46.760;15.942;2023-06-14T09:07:48;16.40;99.90
24412;DHT22;12544;46.760;15.942;2023-06-14T09:10:16;16.60;99.90
24412;DHT22;12544;46.760;15.942;2023-06-14T09:12:42;16.70;99.90
24412;DHT22;12544;46.760;15.942;2023-06-14T09:15:08;16.70;99.90
24412;DHT22;12544;46.760;15.942;2023-06-14T09:17:38;16.80;99.90
24412;DHT22;12544;46.760;15.942;2023-06-14T09:20:05;16.70;99.90
24412;DHT22;12544;46.760;15.942;2023-06-14T09:22:32;16.70;99.90
24412;DHT22;12544;46.760;15.942;2023-06-14T09:24:58;16.80;99.90
24412;DHT22;12544;46.760;15.942;2023-06-14T09:27:25;16.90;99.90
24412;DHT22;12544;46.760;15.942;2023-06-14T09:29:52;17.00;99.90
24412;DHT22;12544;46.760;15.942;2023-06-14T09:32:18;17.10;99.90
24412;DHT22;12544;46.760;15.942;2023-06-14T09:34:45;17.10;99.90
24412;DHT22;12544;46.760;15.942;2023-06-14T09:37:10;17.00;99.90
24412;DHT22;12544;46.760;15.942;2023-06-14T09:39:49;17.10;99.90
24412;DHT22;12544;46.760;15.942;2023-06-14T09:42:19;17.00;99.90
24412;DHT22;12544;46.760;15.942;2023-06-14T09:44:48;17.00;99.90
24412;DHT22;12544;46.760;15.942;2023-06-14T09:47:17;16.90;99.90
24412;DHT22;12544;46.760;15.942;2023-06-14T09:49:43;17.00;99.90
24412;DHT22;12544;46.760;15.942;2023-06-14T09:52:15;17.10;99.90
24412;DHT22;12544;46.760;15.942;2023-06-14T09:54:42;17.20;99.90
24412;DHT22;12544;46.760;15.942;2023-06-14T09:57:11;17.20;99.90
24412;DHT22;12544;46.760;15.942;2023-06-14T09:59:44;17.30;99.90
24412;DHT22;12544;46.760;15.942;2023-06-14T10:04:58;17.30;99.90
24412;DHT22;12544;46.760;15.942;2023-06-14T10:07:33;17.30;99.90
24412;DHT22;12544;46.760;15.942;2023-06-14T10:10:01;17.40;99.90
24412;DHT22;12544;46.760;15.942;2023-06-14T10:12:27;17.40;99.90
24412;DHT22;12544;46.760;15.942;2023-06-14T10:14:53;17.40;99.90
24412;DHT22;12544;46.760;15.942;2023-06-14T10:17:43;17.50;99.90
24412;DHT22;12544;46.760;15.942;2023-06-14T10:23:17;17.30;99.90
24412;DHT22;12544;46.760;15.942;2023-06-14T10:25:44;17.20;99.90
24412;DHT22;12544;46.760;15.942;2023-06-14T10:28:20;17.20;99.90
24412;DHT22;12544;46.760;15.942;2023-06-14T10:31:08;17.00;99.90
24412;DHT22;12544;46.760;15.942;2023-06-14T10:33:52;17.00;99.90
24412;DHT22;12544;46.760;15.942;2023-06-14T10:36:27;17.10;99.90
24412;DHT22;12544;46.760;15.942;2023-06-14T10:41:34;17.30;99.90
24412;DHT22;12544;46.760;15.942;2023-06-14T10:46:53;17.60;99.90
24412;DHT22;12544;46.760;15.942;2023-06-14T10:49:19;17.70;99.90
24412;DHT22;12544;46.760;15.942;2023-06-14T10:51:57;17.80;99.90
24412;DHT22;12544;46.760;15.942;2023-06-14T10:54:23;18.00;99.90
24412;DHT22;12544;46.760;15.942;2023-06-14T10:56:52;18.10;99.90
24412;DHT22;12544;46.760;15.942;2023-06-14T10:59:19;18.10;99.90
24412;DHT22;12544;46.760;15.942;2023-06-14T11:04:52;18.00;99.90
24412;DHT22;12544;46.760;15.942;2023-06-14T11:13:06;18.40;99.90
24412;DHT22;12544;46.760;15.942;2023-06-14T11:15:34;18.80;99.90
24412;DHT22;12544;46.760;15.942;2023-06-14T11:18:01;19.30;99.90
24412;DHT22;12544;46.760;15.942;2023-06-14T11:20:29;19.80;99.90
24412;DHT22;12544;46.760;15.942;2023-06-14T11:22:55;19.90;99.90
24412;DHT22;12544;46.760;15.942;2023-06-14T11:25:20;19.50;99.90
24412;DHT22;12544;46.760;15.942;2023-06-14T11:27:48;19.50;99.90
24412;DHT22;12544;46.760;15.942;2023-06-14T11:30:14;19.70;99.90
24412;DHT22;12544;46.760;15.942;2023-06-14T11:32:40;19.80;99.90
24412;DHT22;12544;46.760;15.942;2023-06-14T11:35:07;19.90;99.90
24412;DHT22;12544;46.760;15.942;2023-06-14T11:37:34;19.80;99.90
24412;DHT22;12544;46.760;15.942;2023-06-14T11:40:03;19.50;99.90
24412;DHT22;12544;46.760;15.942;2023-06-14T11:42:33;19.00;99.90
24412;DHT22;12544;46.760;15.942;2023-06-14T11:44:59;19.10;99.90
24412;DHT22;12544;46.760;15.942;2023-06-14T11:47:30;19.20;99.90
24412;DHT22;12544;46.760;15.942;2023-06-14T11:49:58;19.40;99.90
24412;DHT22;12544;46.760;15.942;2023-06-14T11:52:24;19.50;99.90
24412;DHT22;12544;46.760;15.942;2023-06-14T11:54:50;19.70;99.90
24412;DHT22;12544;46.760;15.942;2023-06-14T11:57:18;19.80;99.90
24412;DHT22;12544;46.760;15.942;2023-06-14T11:59:44;19.90;99.90
24412;DHT22;12544;46.760;15.942;2023-06-14T12:02:14;19.90;99.90
24412;DHT22;12544;46.760;15.942;2023-06-14T12:04:43;20.00;99.90
24412;DHT22;12544;46.760;15.942;2023-06-14T12:07:14;19.90;99.90
24412;DHT22;12544;46.760;15.942;2023-06-14T12:10:03;20.00;99.90
24412;DHT22;12544;46.760;15.942;2023-06-14T12:12:35;20.30;99.90
24412;DHT22;12544;46.760;15.942;2023-06-14T12:15:03;20.70;99.90
24412;DHT22;12544;46.760;15.942;2023-06-14T12:17:33;20.90;99.90
24412;DHT22;12544;46.760;15.942;2023-06-14T12:19:59;21.10;99.90
24412;DHT22;12544;46.760;15.942;2023-06-14T12:22:25;21.50;99.90
24412;DHT22;12544;46.760;15.942;2023-06-14T12:24:53;21.50;99.90
24412;DHT22;12544;46.760;15.942;2023-06-14T12:27:21;21.80;99.90
24412;DHT22;12544;46.760;15.942;2023-06-14T12:29:59;21.60;99.90
24412;DHT22;12544;46.760;15.942;2023-06-14T12:32:24;21.60;99.90
24412;DHT22;12544;46.760;15.942;2023-06-14T12:34:50;21.60;99.90
24412;DHT22;12544;46.760;15.942;2023-06-14T12:37:15;21.90;99.90
24412;DHT22;12544;46.760;15.942;2023-06-14T12:39:41;22.10;99.90
24412;DHT22;12544;46.760;15.942;2023-06-14T12:42:07;22.50;99.90
24412;DHT22;12544;46.760;15.942;2023-06-14T12:44:33;22.70;99.90
24412;DHT22;12544;46.760;15.942;2023-06-14T12:47:01;22.70;99.90
24412;DHT22;12544;46.760;15.942;2023-06-14T12:49:26;22.50;99.90
24412;DHT22;12544;46.760;15.942;2023-06-14T12:51:52;22.20;99.90
24412;DHT22;12544;46.760;15.942;2023-06-14T12:54:18;21.90;99.90
24412;DHT22;12544;46.760;15.942;2023-06-14T12:56:43;21.90;99.90
24412;DHT22;12544;46.760;15.942;2023-06-14T12:59:10;22.10;99.90
24412;DHT22;12544;46.760;15.942;2023-06-14T13:01:38;22.10;99.90
24412;DHT22;12544;46.760;15.942;2023-06-14T13:04:03;22.30;99.90
24412;DHT22;12544;46.760;15.942;2023-06-14T13:06:29;22.40;99.90
24412;DHT22;12544;46.760;15.942;2023-06-14T13:08:56;22.50;99.90
24412;DHT22;12544;46.760;15.942;2023-06-14T13:11:24;22.50;99.90
24412;DHT22;12544;46.760;15.942;2023-06-14T13:13:49;22.30;99.90
24412;DHT22;12544;46.760;15.942;2023-06-14T13:16:15;22.30;99.90
24412;DHT22;12544;46.760;15.942;2023-06-14T13:18:41;21.70;99.90
24412;DHT22;12544;46.760;15.942;2023-06-14T13:21:06;21.40;99.90
24412;DHT22;12544;46.760;15.942;2023-06-14T13:23:32;21.50;99.90
24412;DHT22;12544;46.760;15.942;2023-06-14T13:25:57;21.30;99.90
24412;DHT22;12544;46.760;15.942;2023-06-14T13:28:23;21.20;99.90
24412;DHT22;12544;46.760;15.942;2023-06-14T13:30:49;21.30;99.90
24412;DHT22;12544;46.760;15.942;2023-06-14T13:33:15;21.70;99.90
24412;DHT22;12544;46.760;15.942;2023-06-14T13:35:40;21.70;99.90
24412;DHT22;12544;46.760;15.942;2023-06-14T13:38:06;21.60;99.90
24412;DHT22;12544;46.760;15.942;2023-06-14T13:40:31;21.20;99.90
24412;DHT22;12544;46.760;15.942;2023-06-14T13:42:57;21.20;99.90
24412;DHT22;12544;46.760;15.942;2023-06-14T13:45:23;21.60;99.90
24412;DHT22;12544;46.760;15.942;2023-06-14T13:47:48;22.00;99.90
24412;DHT22;12544;46.760;15.942;2023-06-14T13:50:14;22.50;99.90
24412;DHT22;12544;46.760;15.942;2023-06-14T13:52:41;22.60;99.90
24412;DHT22;12544;46.760;15.942;2023-06-14T13:55:07;23.10;99.90
24412;DHT22;12544;46.760;15.942;2023-06-14T13:57:33;23.00;99.90
24412;DHT22;12544;46.760;15.942;2023-06-14T13:59:59;23.00;99.90
24412;DHT22;12544;46.760;15.942;2023-06-14T14:02:27;22.80;99.90
24412;DHT22;12544;46.760;15.942;2023-06-14T14:04:54;22.80;99.90
24412;DHT22;12544;46.760;15.942;2023-06-14T14:07:20;22.90;99.90
24412;DHT22;12544;46.760;15.942;2023-06-14T14:09:47;23.20;99.90
24412;DHT22;12544;46.760;15.942;2023-06-14T14:12:13;23.10;99.90
24412;DHT22;12544;46.760;15.942;2023-06-14T14:14:39;23.50;99.90
24412;DHT22;12544;46.760;15.942;2023-06-14T14:17:05;23.80;99.90
24412;DHT22;12544;46.760;15.942;2023-06-14T14:19:32;24.10;99.90
24412;DHT22;12544;46.760;15.942;2023-06-14T14:21:57;24.30;99.90
24412;DHT22;12544;46.760;15.942;2023-06-14T14:24:23;24.20;99.90
24412;DHT22;12544;46.760;15.942;2023-06-14T14:26:49;23.80;99.90
24412;DHT22;12544;46.760;15.942;2023-06-14T14:29:15;24.00;99.90
24412;DHT22;12544;46.760;15.942;2023-06-14T14:31:42;24.30;99.90
24412;DHT22;12544;46.760;15.942;2023-06-14T14:34:07;24.20;99.90
24412;DHT22;12544;46.760;15.942;2023-06-14T14:36:33;24.10;99.90
24412;DHT22;12544;46.760;15.942;2023-06-14T14:39:01;23.50;99.90
24412;DHT22;12544;46.760;15.942;2023-06-14T14:41:27;23.30;99.90
24412;DHT22;12544;46.760;15.942;2023-06-14T14:43:53;23.20;99.90
24412;DHT22;12544;46.760;15.942;2023-06-14T14:46:19;23.00;99.90
24412;DHT22;12544;46.760;15.942;2023-06-14T14:48:44;22.80;99.90
24412;DHT22;12544;46.760;15.942;2023-06-14T14:51:10;22.60;99.90
24412;DHT22;12544;46.760;15.942;2023-06-14T14:53:35;22.60;99.90
24412;DHT22;12544;46.760;15.942;2023-06-14T14:56:01;22.40;99.90
24412;DHT22;12544;46.760;15.942;2023-06-14T14:58:26;22.30;99.90
24412;DHT22;12544;46.760;15.942;2023-06-14T15:00:52;22.40;99.90
24412;DHT22;12544;46.760;15.942;2023-06-14T15:03:18;22.30;99.90
24412;DHT22;12544;46.760;15.942;2023-06-14T15:05:43;22.40;99.90
24412;DHT22;12544;46.760;15.942;2023-06-14T15:08:09;22.20;99.90
24412;DHT22;12544;46.760;15.942;2023-06-14T15:10:38;22.00;99.90
24412;DHT22;12544;46.760;15.942;2023-06-14T15:13:08;21.70;99.90
24412;DHT22;12544;46.760;15.942;2023-06-14T15:15:35;21.50;99.90
24412;DHT22;12544;46.760;15.942;2023-06-14T15:18:01;21.40;99.90
24412;DHT22;12544;46.760;15.942;2023-06-14T15:20:26;21.60;99.90
24412;DHT22;12544;46.760;15.942;2023-06-14T15:22:53;21.60;99.90
24412;DHT22;12544;46.760;15.942;2023-06-14T15:25:30;22.10;99.90
24412;DHT22;12544;46.760;15.942;2023-06-14T15:27:58;22.50;99.90
24412;DHT22;12544;46.760;15.942;2023-06-14T15:30:23;23.00;99.90
24412;DHT22;12544;46.760;15.942;2023-06-14T15:32:49;23.20;99.90
24412;DHT22;12544;46.760;15.942;2023-06-14T15:35:16;23.10;99.90
24412;DHT22;12544;46.760;15.942;2023-06-14T15:37:43;23.00;99.90